To NAV CANADA Home Page Login to a new session Search on AWWS site Feedback and Comments Disclaimer Vers la page française équivalente Tips FAQ What's new on the site To the Forecasts and Observations / NOTAM section To "File a Flight Plan" website Publications and other links Update of the User's profile FIC Telephone Numbers My Weather Data Folder Route Weather Data Regional Weather Data Local Weather Data To the Forecasts and Observations / NOTAM section
Request Generated 07/05/2015 at 14:57:58 UTC . Weather information available at that time is displayed.

METAR/TAF

NORTH BATTLEFORD/SK    (show WxCam)

SPECI CYQW 051443Z AUTO 34013G19KT 5SM HZ BKN017 14/09 A3003 RMK
SLP174 DENSITY ALT 1900FT=
METAR CYQW 051400Z AUTO 31011G16KT 5SM HZ FEW013 13/09 A3003 RMK
SLP172 DENSITY ALT 1800FT=
METAR CYQW 051300Z AUTO 32010G16KT 5SM BR FEW032 12/10 A3002 RMK
SLP170=
SPECI CYQW 051243Z AUTO 31010KT 5SM BR FEW019 SCT036 12/09 A3002 RMK
SLP169=
METAR CYQW 051200Z AUTO 31009KT 7SM BKN065 11/10 A3001 RMK SLP167=

TAF CYQW 051139Z 0512/0524 30008KT P6SM BKN100 TEMPO 0512/0514 3SM FU
HZ
FM051400 30010KT P6SM BKN040 TEMPO 0514/0520 3SM FU HZ BKN020
FM052000 34015KT P6SM BKN060 TEMPO 0520/0524 4SM -SHRA FU
RMK FCST BASED ON AUTO OBS. NXT FCST BY 051800Z=
Your time UTC time
Weather data provided by Environment Canada and NAV CANADA